Estación Meteorológica Peña el Pijo (Robertgarden) [ 07/23/19 00:39:30 CEST ]

Fecha Hora Presion(HPa) Temp (°C) Humedad % Rocio (°C) Viento ( m/s) Direccion Lluvia 1Hora(mm) Lluvia 24H(mm) LLuvia Total(mm)
2019-May-16 01:01:35 1005.600 14.9 55 5.9         318.05
2019-May-16 02:01:39 1005.500 13.2 61 5.8         318.05
2019-May-16 03:01:37 1005.100 12.0 67 6.0         318.05
2019-May-16 04:01:36 1004.700 11.0 73 6.4         318.05
2019-May-16 05:01:40 1004.600 10.7 76 6.6         318.05
2019-May-16 06:01:40 1004.400 11.1 79 7.6         318.05
2019-May-16 07:01:32 1004.200 9.8 81 6.7         318.05
2019-May-16 08:01:58 1004.600 10.2 83 7.4         318.05
2019-May-16 09:01:50 1004.100 14.6 79 11.0         318.05
2019-May-16 10:01:41 1004.000 18.6 62 11.2         318.05
2019-May-16 11:01:46 1003.700 22.9 51 12.2         318.05
2019-May-16 12:01:39 1003.000 25.9 45 13.0         318.05
2019-May-16 13:01:51 1002.600 29.4 38 13.6         318.05
2019-May-16 14:01:46 1002.100 30.6 22 6.3         318.05
2019-May-16 15:01:26 1001.600 31.3 21 6.3 1.8 WNW     318.05
2019-May-16 16:01:33 1001.100 30.9 21 6.0         318.05
2019-May-16 17:01:35 1000.500 30.6 21 5.7         318.05
2019-May-16 18:01:49 1000.300 29.1 22 5.1 1.1 N     318.05
2019-May-16 19:01:41 1000.000 27.1 19 1.3         318.05
2019-May-16 20:01:41 1000.000 24.6 21 0.8 2.3 N     318.05
2019-May-16 21:01:41 1000.000 21.4 25 0.3         318.05
2019-May-16 22:01:47 1000.100 18.9 31 1.4         318.05
2019-May-16 23:02:03 1000.200 18.4 38 3.8         318.05

Temperatura Máxima:31°    Temperatura Mínima:
Presión Máxima:1005.600 Hpa    Presión Mínima:1000.000 Hpa


Volver